Time,TemperatureF,DewpointF,PressureIn,WindDirection,WindDirectionDegrees,WindSpeedMPH,WindSpeedGustMPH,Humidity,HourlyPrecipIn,Conditions,Clouds,dailyrainin,SoftwareType,DateUTC
2013-08-03 00:01:00,67.8,62.8,29.84,South,180,0.0,0.0,84,0.00,,,0.00,WUHU21623XXSP,2013-08-03 04:01:00,
2013-08-03 00:06:00,68.2,63.2,29.84,SSE,157,0.0,0.0,84,0.00,,,0.00,WUHU21623XXSP,2013-08-03 04:06:00,
2013-08-03 00:11:00,68.2,63.2,29.84,ESE,112,0.0,0.0,84,0.00,,,0.00,WUHU21623XXSP,2013-08-03 04:11:00,
2013-08-03 00:16:00,68.2,63.2,29.84,ESE,112,0.0,0.0,84,0.00,,,0.00,WUHU21623XXSP,2013-08-03 04:16:00,
2013-08-03 00:21:00,68.2,63.5,29.84,SE,135,0.0,0.0,85,0.00,,,0.00,WUHU21623XXSP,2013-08-03 04:21:00,
2013-08-03 00:26:00,68.2,63.5,29.84,SE,135,0.0,0.0,85,0.00,,,0.00,WUHU21623XXSP,2013-08-03 04:26:00,
2013-08-03 00:32:00,68.2,63.5,29.84,NNW,337,1.8,1.8,85,0.00,,,0.00,WUHU21623XXSP,2013-08-03 04:32:00,
2013-08-03 00:37:00,68.2,63.5,29.84,SE,135,0.0,1.8,85,0.00,,,0.00,WUHU21623XXSP,2013-08-03 04:37:00,
2013-08-03 00:42:00,68.2,63.5,29.84,ESE,112,0.0,0.0,85,0.00,,,0.00,WUHU21623XXSP,2013-08-03 04:42:00,
2013-08-03 00:47:00,68.2,63.5,29.84,ESE,112,0.0,0.0,85,0.00,,,0.00,WUHU21623XXSP,2013-08-03 04:47:00,
2013-08-03 00:52:00,68.2,63.5,29.84,WNW,292,0.0,0.0,85,0.00,,,0.00,WUHU21623XXSP,2013-08-03 04:52:00,
2013-08-03 00:57:00,68.2,63.5,29.84,SE,135,0.0,0.0,85,0.00,,,0.00,WUHU21623XXSP,2013-08-03 04:57:00,
2013-08-03 01:02:00,67.8,63.1,29.84,SE,135,0.0,0.0,85,0.00,,,0.00,WUHU21623XXSP,2013-08-03 05:02:00,
2013-08-03 01:07:00,67.8,63.1,29.84,WSW,247,0.0,0.0,85,0.00,,,0.00,WUHU21623XXSP,2013-08-03 05:07:00,
2013-08-03 01:12:00,67.8,63.1,29.83,SW,225,0.0,0.0,85,0.00,,,0.00,WUHU21623XXSP,2013-08-03 05:12:00,
2013-08-03 01:17:00,67.6,63.0,29.84,WNW,292,0.0,0.0,85,0.00,,,0.00,WUHU21623XXSP,2013-08-03 05:17:00,
2013-08-03 01:22:00,67.6,63.0,29.83,SSE,157,0.0,0.0,85,0.00,,,0.00,WUHU21623XXSP,2013-08-03 05:22:00,
2013-08-03 01:27:00,67.5,62.8,29.83,SSE,157,0.0,0.0,85,0.00,,,0.00,WUHU21623XXSP,2013-08-03 05:27:00,
2013-08-03 01:32:00,67.3,62.6,29.82,ESE,112,0.0,0.0,85,0.00,,,0.00,WUHU21623XXSP,2013-08-03 05:32:00,
2013-08-03 01:37:00,67.3,62.6,29.82,ESE,112,0.0,0.0,85,0.00,,,0.00,WUHU21623XXSP,2013-08-03 05:37:00,
2013-08-03 01:42:00,67.3,62.9,29.82,SE,135,0.0,0.0,86,0.00,,,0.00,WUHU21623XXSP,2013-08-03 05:42:00,
2013-08-03 01:47:00,67.3,62.9,29.82,South,180,0.0,0.0,86,0.00,,,0.00,WUHU21623XXSP,2013-08-03 05:47:00,
2013-08-03 01:52:00,67.1,62.7,29.82,SE,135,0.0,0.0,86,0.00,,,0.00,WUHU21623XXSP,2013-08-03 05:52:00,
2013-08-03 01:57:00,67.1,62.7,29.81,ESE,112,0.0,0.0,86,0.00,,,0.00,WUHU21623XXSP,2013-08-03 05:57:00,
2013-08-03 02:02:00,67.1,62.7,29.82,SE,135,0.0,0.0,86,0.00,,,0.00,WUHU21623XXSP,2013-08-03 06:02:00,
2013-08-03 02:07:00,66.9,62.6,29.81,SSE,157,0.0,0.0,86,0.00,,,0.00,WUHU21623XXSP,2013-08-03 06:07:00,
2013-08-03 02:12:00,66.9,62.6,29.81,SSE,157,0.0,0.0,86,0.00,,,0.00,WUHU21623XXSP,2013-08-03 06:12:00,
2013-08-03 02:17:00,66.7,62.4,29.82,South,180,0.0,0.0,86,0.00,,,0.00,WUHU21623XXSP,2013-08-03 06:17:00,
2013-08-03 02:22:00,66.7,62.4,29.81,ESE,112,0.0,0.0,86,0.00,,,0.00,WUHU21623XXSP,2013-08-03 06:22:00,
2013-08-03 02:27:00,66.7,62.7,29.81,SE,135,0.0,0.0,87,0.00,,,0.00,WUHU21623XXSP,2013-08-03 06:27:00,
2013-08-03 02:32:00,66.6,62.5,29.81,SE,135,0.0,0.0,87,0.00,,,0.00,WUHU21623XXSP,2013-08-03 06:32:00,
2013-08-03 02:37:00,66.4,62.3,29.81,SE,135,0.0,0.0,87,0.00,,,0.00,WUHU21623XXSP,2013-08-03 06:37:00,
2013-08-03 02:42:00,66.4,62.3,29.81,SE,135,0.0,0.0,87,0.00,,,0.00,WUHU21623XXSP,2013-08-03 06:42:00,
2013-08-03 02:47:00,66.4,62.3,29.80,North,0,0.0,0.0,87,0.00,,,0.00,WUHU21623XXSP,2013-08-03 06:47:00,
2013-08-03 02:52:00,66.4,62.3,29.80,North,0,0.0,0.0,87,0.00,,,0.00,WUHU21623XXSP,2013-08-03 06:52:00,
2013-08-03 02:57:00,66.4,62.3,29.80,North,0,0.0,0.0,87,0.00,,,0.00,WUHU21623XXSP,2013-08-03 06:57:00,
2013-08-03 03:02:00,66.2,62.2,29.80,West,270,0.0,0.0,87,0.00,,,0.00,WUHU21623XXSP,2013-08-03 07:02:00,
2013-08-03 03:07:00,66.0,62.0,29.80,West,270,0.0,0.0,87,0.00,,,0.00,WUHU21623XXSP,2013-08-03 07:07:00,
2013-08-03 03:12:00,66.0,62.0,29.79,NE,45,0.0,0.0,87,0.00,,,0.00,WUHU21623XXSP,2013-08-03 07:12:00,
2013-08-03 03:17:00,66.0,62.0,29.79,ENE,67,0.0,0.0,87,0.00,,,0.00,WUHU21623XXSP,2013-08-03 07:17:00,
2013-08-03 03:22:00,66.0,62.0,29.79,ENE,67,0.0,0.0,87,0.00,,,0.00,WUHU21623XXSP,2013-08-03 07:22:00,
2013-08-03 03:27:00,66.0,62.0,29.79,NNE,22,0.0,0.0,87,0.00,,,0.00,WUHU21623XXSP,2013-08-03 07:27:00,
2013-08-03 03:32:00,66.0,62.0,29.78,East,90,0.0,0.0,87,0.00,,,0.00,WUHU21623XXSP,2013-08-03 07:32:00,
2013-08-03 03:37:00,66.0,62.0,29.78,East,90,0.0,0.0,87,0.00,,,0.00,WUHU21623XXSP,2013-08-03 07:37:00,
2013-08-03 03:42:00,66.0,62.0,29.79,SSE,157,0.0,0.0,87,0.00,,,0.00,WUHU21623XXSP,2013-08-03 07:42:00,
2013-08-03 03:47:00,66.0,62.0,29.79,South,180,0.0,0.0,87,0.00,,,0.00,WUHU21623XXSP,2013-08-03 07:47:00,
2013-08-03 03:52:00,66.0,62.0,29.78,South,180,0.0,0.0,87,0.00,,,0.00,WUHU21623XXSP,2013-08-03 07:52:00,
2013-08-03 03:57:00,66.0,62.0,29.78,South,180,0.0,0.0,87,0.00,,,0.00,WUHU21623XXSP,2013-08-03 07:57:00,
2013-08-03 04:02:00,65.8,62.0,29.78,South,180,0.0,0.0,87,0.00,,,0.00,WUHU21623XXSP,2013-08-03 08:02:00,
2013-08-03 04:07:00,65.8,61.8,29.78,South,180,0.0,0.0,87,0.00,,,0.00,WUHU21623XXSP,2013-08-03 08:07:00,
2013-08-03 04:12:00,65.8,61.8,29.78,South,180,0.0,0.0,87,0.00,,,0.00,WUHU21623XXSP,2013-08-03 08:12:00,
2013-08-03 04:17:00,65.8,61.8,29.79,SE,135,0.0,0.0,87,0.00,,,0.00,WUHU21623XXSP,2013-08-03 08:17:00,
2013-08-03 04:22:00,65.8,61.8,29.79,SSE,157,0.0,0.0,87,0.00,,,0.00,WUHU21623XXSP,2013-08-03 08:22:00,
2013-08-03 04:27:00,65.8,62.2,29.79,ENE,67,0.0,0.0,88,0.00,,,0.00,WUHU21623XXSP,2013-08-03 08:27:00,
2013-08-03 04:32:00,65.8,62.2,29.79,ESE,112,0.0,0.0,88,0.00,,,0.00,WUHU21623XXSP,2013-08-03 08:32:00,
2013-08-03 04:37:00,65.8,62.2,29.80,SSE,157,0.0,0.0,88,0.00,,,0.00,WUHU21623XXSP,2013-08-03 08:37:00,
2013-08-03 04:42:00,65.8,62.2,29.80,NE,45,0.0,0.0,88,0.00,,,0.00,WUHU21623XXSP,2013-08-03 08:42:00,
2013-08-03 04:47:00,65.8,62.5,29.80,ESE,112,0.0,0.0,89,0.00,,,0.00,WUHU21623XXSP,2013-08-03 08:47:00,
2013-08-03 04:52:00,66.0,62.6,29.79,South,180,0.0,0.0,89,0.00,,,0.00,WUHU21623XXSP,2013-08-03 08:52:00,
2013-08-03 04:57:00,66.2,62.6,29.79,NNE,22,0.0,0.0,89,0.00,,,0.00,WUHU21623XXSP,2013-08-03 08:57:00,
2013-08-03 05:02:00,66.2,62.8,29.79,SSE,157,0.0,0.0,89,0.00,,,0.00,WUHU21623XXSP,2013-08-03 09:02:00,
2013-08-03 05:07:00,66.4,63.0,29.79,SSE,157,0.0,0.0,89,0.00,,,0.00,WUHU21623XXSP,2013-08-03 09:07:00,
2013-08-03 05:12:00,66.6,63.5,29.80,SE,135,0.0,0.0,90,0.00,,,0.00,WUHU21623XXSP,2013-08-03 09:12:00,
2013-08-03 05:17:00,66.7,63.7,29.80,SSE,157,0.0,0.0,90,0.00,,,0.00,WUHU21623XXSP,2013-08-03 09:17:00,
2013-08-03 05:22:00,66.7,63.7,29.80,SSE,157,0.0,1.3,90,0.00,,,0.00,WUHU21623XXSP,2013-08-03 09:22:00,
2013-08-03 05:27:00,66.7,63.7,29.80,ESE,112,0.0,1.3,90,0.00,,,0.00,WUHU21623XXSP,2013-08-03 09:27:00,
2013-08-03 05:32:00,66.9,63.9,29.81,South,180,0.0,0.0,90,0.00,,,0.00,WUHU21623XXSP,2013-08-03 09:32:00,
2013-08-03 05:37:00,66.9,63.9,29.81,SE,135,0.0,0.0,90,0.00,,,0.00,WUHU21623XXSP,2013-08-03 09:37:00,
2013-08-03 05:42:00,66.9,63.9,29.81,West,270,0.0,0.0,90,0.00,,,0.00,WUHU21623XXSP,2013-08-03 09:42:00,
2013-08-03 05:47:00,66.7,63.7,29.80,SE,135,0.0,0.0,90,0.00,,,0.00,WUHU21623XXSP,2013-08-03 09:47:00,
2013-08-03 05:52:00,66.7,63.7,29.81,West,270,0.0,0.0,90,0.00,,,0.00,WUHU21623XXSP,2013-08-03 09:52:00,
2013-08-03 05:57:00,66.7,63.7,29.81,ENE,67,0.0,0.0,90,0.00,,,0.00,WUHU21623XXSP,2013-08-03 09:57:00,
2013-08-03 06:02:00,66.7,63.7,29.80,East,90,0.0,0.0,90,0.00,,,0.00,WUHU21623XXSP,2013-08-03 10:02:00,
2013-08-03 06:07:00,66.7,63.7,29.81,SW,225,0.0,0.0,90,0.00,,,0.00,WUHU21623XXSP,2013-08-03 10:07:00,
2013-08-03 06:12:00,66.9,63.9,29.81,NE,45,0.0,0.0,90,0.00,,,0.00,WUHU21623XXSP,2013-08-03 10:12:00,
2013-08-03 06:17:00,66.7,63.7,29.81,East,90,1.6,1.6,90,0.00,,,0.00,WUHU21623XXSP,2013-08-03 10:17:00,
2013-08-03 06:22:00,66.7,63.7,29.81,ESE,112,0.0,1.6,90,0.00,,,0.00,WUHU21623XXSP,2013-08-03 10:22:00,
2013-08-03 06:27:00,66.9,63.9,29.81,WSW,247,0.0,0.0,90,0.00,,,0.00,WUHU21623XXSP,2013-08-03 10:27:00,
2013-08-03 06:32:00,66.9,63.9,29.81,ESE,112,0.0,0.0,90,0.00,,,0.00,WUHU21623XXSP,2013-08-03 10:32:00,
2013-08-03 06:37:00,66.9,63.9,29.81,SSE,157,0.0,0.0,90,0.00,,,0.00,WUHU21623XXSP,2013-08-03 10:37:00,
2013-08-03 06:42:00,67.1,64.0,29.81,WNW,292,0.0,0.0,90,0.00,,,0.00,WUHU21623XXSP,2013-08-03 10:42:00,
2013-08-03 06:47:00,67.1,64.0,29.81,SE,135,0.0,0.0,90,0.00,,,0.00,WUHU21623XXSP,2013-08-03 10:47:00,
2013-08-03 06:52:00,67.3,64.2,29.81,ESE,112,0.0,0.0,90,0.00,,,0.00,WUHU21623XXSP,2013-08-03 10:52:00,
2013-08-03 06:57:00,67.5,64.4,29.81,East,90,0.0,0.0,90,0.00,,,0.00,WUHU21623XXSP,2013-08-03 10:57:00,
2013-08-03 07:02:00,67.6,64.6,29.81,ENE,67,0.0,0.0,90,0.00,,,0.00,WUHU21623XXSP,2013-08-03 11:02:00,
2013-08-03 07:07:00,67.6,64.6,29.80,East,90,0.0,0.0,90,0.00,,,0.00,WUHU21623XXSP,2013-08-03 11:07:00,
2013-08-03 07:12:00,67.8,64.4,29.81,East,90,0.0,0.0,89,0.00,,,0.00,WUHU21623XXSP,2013-08-03 11:12:00,
2013-08-03 07:17:00,67.8,64.4,29.81,ENE,67,0.0,0.0,89,0.00,,,0.00,WUHU21623XXSP,2013-08-03 11:17:00,
2013-08-03 07:22:00,67.8,64.1,29.80,SE,135,0.0,0.0,88,0.00,,,0.00,WUHU21623XXSP,2013-08-03 11:22:00,
2013-08-03 07:27:00,68.2,64.8,29.80,ESE,112,0.0,0.0,89,0.00,,,0.00,WUHU21623XXSP,2013-08-03 11:27:00,
2013-08-03 07:32:00,68.4,64.8,29.80,ESE,112,0.0,0.0,88,0.00,,,0.00,WUHU21623XXSP,2013-08-03 11:32:00,
2013-08-03 07:37:00,68.4,64.6,29.80,SSE,157,0.0,0.0,88,0.00,,,0.00,WUHU21623XXSP,2013-08-03 11:37:00,
2013-08-03 07:42:00,68.5,64.6,29.80,SSE,157,0.0,0.0,88,0.00,,,0.00,WUHU21623XXSP,2013-08-03 11:42:00,
2013-08-03 07:47:00,68.5,64.8,29.80,ESE,112,0.0,0.0,88,0.00,,,0.00,WUHU21623XXSP,2013-08-03 11:47:00,
2013-08-03 07:52:00,68.5,64.8,29.80,ESE,112,0.0,0.0,88,0.00,,,0.00,WUHU21623XXSP,2013-08-03 11:52:00,
2013-08-03 07:57:00,68.9,65.2,29.81,SSE,157,0.0,0.0,88,0.00,,,0.00,WUHU21623XXSP,2013-08-03 11:57:00,
2013-08-03 08:02:00,69.1,65.0,29.80,NNW,337,0.0,0.0,87,0.00,,,0.00,WUHU21623XXSP,2013-08-03 12:02:00,
2013-08-03 08:07:00,69.3,65.2,29.80,SE,135,0.0,0.0,87,0.00,,,0.00,WUHU21623XXSP,2013-08-03 12:07:00,
2013-08-03 08:12:00,69.4,65.4,29.80,NE,45,0.0,0.0,87,0.00,,,0.00,WUHU21623XXSP,2013-08-03 12:12:00,
2013-08-03 08:17:00,69.4,65.0,29.80,NNE,22,3.4,3.4,86,0.00,,,0.00,WUHU21623XXSP,2013-08-03 12:17:00,
2013-08-03 08:22:00,69.6,65.0,29.80,South,180,0.0,3.4,86,0.00,,,0.00,WUHU21623XXSP,2013-08-03 12:22:00,
2013-08-03 08:27:00,69.6,65.2,29.80,SE,135,0.0,0.0,86,0.00,,,0.00,WUHU21623XXSP,2013-08-03 12:27:00,
2013-08-03 08:32:00,69.8,64.8,29.81,SE,135,0.0,0.0,85,0.00,,,0.00,WUHU21623XXSP,2013-08-03 12:32:00,
2013-08-03 08:37:00,70.0,64.9,29.80,SSE,157,0.0,1.1,84,0.00,,,0.00,WUHU21623XXSP,2013-08-03 12:37:00,
2013-08-03 08:42:00,70.3,65.2,29.81,SW,225,1.6,1.6,84,0.00,,,0.00,WUHU21623XXSP,2013-08-03 12:42:00,
2013-08-03 08:47:00,70.9,65.4,29.80,ENE,67,0.0,1.6,83,0.00,,,0.00,WUHU21623XXSP,2013-08-03 12:47:00,
2013-08-03 08:52:00,71.4,65.6,29.81,WNW,292,2.5,2.5,82,0.00,,,0.00,WUHU21623XXSP,2013-08-03 12:52:00,
2013-08-03 08:57:00,72.1,65.7,29.81,SE,135,0.0,2.9,80,0.00,,,0.00,WUHU21623XXSP,2013-08-03 12:57:00,
2013-08-03 09:02:00,72.5,65.6,29.80,West,270,0.9,2.9,79,0.00,,,0.00,WUHU21623XXSP,2013-08-03 13:02:00,
2013-08-03 09:07:00,72.5,65.8,29.80,East,90,1.6,1.6,79,0.00,,,0.00,WUHU21623XXSP,2013-08-03 13:07:00,
2013-08-03 09:12:00,72.5,64.9,29.80,East,90,0.0,1.6,77,0.00,,,0.00,WUHU21623XXSP,2013-08-03 13:12:00,
2013-08-03 09:17:00,72.3,65.1,29.81,North,0,2.0,2.0,78,0.00,,,0.00,WUHU21623XXSP,2013-08-03 13:17:00,
2013-08-03 09:22:00,72.3,65.1,29.81,NNE,22,1.8,2.0,78,0.00,,,0.00,WUHU21623XXSP,2013-08-03 13:22:00,
2013-08-03 09:27:00,72.1,64.9,29.81,ESE,112,0.0,2.2,78,0.00,,,0.00,WUHU21623XXSP,2013-08-03 13:27:00,
2013-08-03 09:32:00,72.1,64.9,29.81,WSW,247,1.6,2.2,78,0.00,,,0.00,WUHU21623XXSP,2013-08-03 13:32:00,
2013-08-03 09:37:00,72.1,64.9,29.81,SSW,202,2.2,2.2,78,0.00,,,0.00,WUHU21623XXSP,2013-08-03 13:37:00,
2013-08-03 09:42:00,72.1,65.3,29.81,WSW,247,1.3,2.2,79,0.00,,,0.00,WUHU21623XXSP,2013-08-03 13:42:00,
2013-08-03 09:47:00,72.1,65.3,29.81,East,90,0.0,1.3,79,0.00,,,0.00,WUHU21623XXSP,2013-08-03 13:47:00,
2013-08-03 09:52:00,72.0,65.1,29.81,NE,45,0.0,0.0,79,0.00,,,0.00,WUHU21623XXSP,2013-08-03 13:52:00,
2013-08-03 09:57:00,72.0,65.1,29.81,ESE,112,0.0,0.0,79,0.00,,,0.00,WUHU21623XXSP,2013-08-03 13:57:00,
2013-08-03 10:02:00,71.8,64.9,29.80,ENE,67,0.0,0.0,79,0.00,,,0.00,WUHU21623XXSP,2013-08-03 14:02:00,
2013-08-03 10:07:00,71.8,64.9,29.81,SSW,202,0.0,0.0,79,0.00,,,0.00,WUHU21623XXSP,2013-08-03 14:07:00,
2013-08-03 10:12:00,72.0,65.1,29.81,East,90,0.0,1.3,79,0.00,,,0.00,WUHU21623XXSP,2013-08-03 14:12:00,
2013-08-03 10:17:00,72.1,65.3,29.81,SW,225,0.0,1.3,79,0.00,,,0.00,WUHU21623XXSP,2013-08-03 14:17:00,
2013-08-03 10:22:00,72.7,65.8,29.81,SW,225,0.0,0.0,79,0.00,,,0.00,WUHU21623XXSP,2013-08-03 14:22:00,
2013-08-03 10:27:00,73.0,66.2,29.81,SSW,202,0.0,0.0,79,0.00,,,0.00,WUHU21623XXSP,2013-08-03 14:27:00,
2013-08-03 10:32:00,73.0,65.8,29.81,ENE,67,0.0,0.0,78,0.00,,,0.00,WUHU21623XXSP,2013-08-03 14:32:00,
2013-08-03 10:37:00,73.0,65.8,29.81,ENE,67,0.0,0.0,78,0.00,,,0.00,WUHU21623XXSP,2013-08-03 14:37:00,
2013-08-03 10:42:00,72.9,65.6,29.81,East,90,0.0,0.0,78,0.00,,,0.00,WUHU21623XXSP,2013-08-03 14:42:00,
2013-08-03 10:47:00,72.7,65.4,29.81,NE,45,0.0,0.0,78,0.00,,,0.00,WUHU21623XXSP,2013-08-03 14:47:00,
2013-08-03 10:52:00,73.0,65.8,29.81,SSE,157,0.0,0.0,78,0.00,,,0.00,WUHU21623XXSP,2013-08-03 14:52:00,
2013-08-03 10:57:00,73.0,65.4,29.81,WNW,292,0.0,0.0,77,0.00,,,0.00,WUHU21623XXSP,2013-08-03 14:57:00,
2013-08-03 11:02:00,73.0,65.4,29.81,East,90,0.0,1.1,77,0.00,,,0.00,WUHU21623XXSP,2013-08-03 15:02:00,
2013-08-03 11:07:00,73.0,65.8,29.81,ESE,112,0.0,1.1,78,0.00,,,0.00,WUHU21623XXSP,2013-08-03 15:07:00,
2013-08-03 11:12:00,72.9,65.6,29.81,North,0,0.0,0.0,78,0.00,,,0.00,WUHU21623XXSP,2013-08-03 15:12:00,
2013-08-03 11:17:00,72.7,65.4,29.81,East,90,0.0,0.0,78,0.00,,,0.00,WUHU21623XXSP,2013-08-03 15:17:00,
2013-08-03 11:22:00,72.7,65.4,29.81,ESE,112,0.0,0.0,78,0.00,,,0.00,WUHU21623XXSP,2013-08-03 15:22:00,
2013-08-03 11:27:00,72.7,65.1,29.81,WNW,292,1.3,2.0,77,0.00,,,0.00,WUHU21623XXSP,2013-08-03 15:27:00,
2013-08-03 11:32:00,72.5,64.9,29.81,SSE,157,0.0,2.0,77,0.00,,,0.00,WUHU21623XXSP,2013-08-03 15:32:00,
2013-08-03 11:37:00,72.5,65.3,29.81,North,0,0.0,0.0,78,0.00,,,0.00,WUHU21623XXSP,2013-08-03 15:37:00,
2013-08-03 11:42:00,72.3,65.1,29.81,East,90,0.0,0.0,78,0.00,,,0.00,WUHU21623XXSP,2013-08-03 15:42:00,
2013-08-03 11:47:00,72.1,65.3,29.81,SE,135,0.0,0.0,79,0.00,,,0.00,WUHU21623XXSP,2013-08-03 15:47:00,
2013-08-03 11:52:00,72.0,65.1,29.81,ESE,112,0.0,0.0,79,0.00,,,0.00,WUHU21623XXSP,2013-08-03 15:52:00,
2013-08-03 11:57:00,71.8,64.9,29.81,NE,45,0.0,0.0,79,0.00,,,0.00,WUHU21623XXSP,2013-08-03 15:57:00,
2013-08-03 12:02:00,71.4,64.9,29.81,ESE,112,0.0,0.0,80,0.00,,,0.00,WUHU21623XXSP,2013-08-03 16:02:00,
2013-08-03 12:07:00,71.4,64.9,29.81,ESE,112,0.0,0.0,80,0.00,,,0.00,WUHU21623XXSP,2013-08-03 16:07:00,
2013-08-03 12:13:00,71.4,65.3,29.81,NW,315,2.0,2.0,81,0.00,,,0.00,WUHU21623XXSP,2013-08-03 16:13:00,
2013-08-03 12:18:00,71.4,65.3,29.80,SE,135,0.0,2.0,81,0.00,,,0.00,WUHU21623XXSP,2013-08-03 16:18:00,
2013-08-03 12:23:00,71.2,65.1,29.81,West,270,6.9,6.9,81,0.00,,,0.00,WUHU21623XXSP,2013-08-03 16:23:00,
2013-08-03 12:28:00,71.1,64.9,29.80,East,90,0.0,6.9,81,0.00,,,0.00,WUHU21623XXSP,2013-08-03 16:28:00,
2013-08-03 12:33:00,71.1,65.3,29.81,SW,225,0.0,0.0,82,0.00,,,0.00,WUHU21623XXSP,2013-08-03 16:33:00,
2013-08-03 12:38:00,71.2,65.4,29.81,NNE,22,0.0,0.0,82,0.00,,,0.00,WUHU21623XXSP,2013-08-03 16:38:00,
2013-08-03 12:43:00,71.4,65.6,29.81,ESE,112,0.0,0.0,82,0.00,,,0.00,WUHU21623XXSP,2013-08-03 16:43:00,
2013-08-03 12:47:00,71.4,65.3,29.80,SE,135,0.0,0.0,81,0.00,,,0.00,WUHU21623XXSP,2013-08-03 16:47:00,
2013-08-03 12:53:00,71.4,65.3,29.80,ENE,67,0.0,0.0,81,0.00,,,0.00,WUHU21623XXSP,2013-08-03 16:53:00,
2013-08-03 12:58:00,71.8,65.6,29.80,East,90,0.0,0.0,81,0.00,,,0.00,WUHU21623XXSP,2013-08-03 16:58:00,
2013-08-03 13:02:00,72.1,66.0,29.81,SSE,157,0.0,0.0,81,0.00,,,0.00,WUHU21623XXSP,2013-08-03 17:02:00,
2013-08-03 13:08:00,72.7,65.8,29.80,ENE,67,1.8,1.8,80,0.00,,,0.00,WUHU21623XXSP,2013-08-03 17:08:00,
2013-08-03 13:13:00,73.2,66.7,29.80,NNW,337,0.0,1.8,80,0.00,,,0.00,WUHU21623XXSP,2013-08-03 17:13:00,
2013-08-03 13:18:00,73.6,67.1,29.80,ENE,67,0.0,0.0,80,0.00,,,0.00,WUHU21623XXSP,2013-08-03 17:18:00,
2013-08-03 13:23:00,74.8,67.6,29.80,NE,45,4.3,4.3,78,0.00,,,0.00,WUHU21623XXSP,2013-08-03 17:23:00,
2013-08-03 13:27:00,75.7,67.6,29.80,NW,315,0.0,4.3,76,0.00,,,0.00,WUHU21623XXSP,2013-08-03 17:27:00,
2013-08-03 13:33:00,75.9,67.4,29.80,ESE,112,1.8,2.5,75,0.00,,,0.00,WUHU21623XXSP,2013-08-03 17:33:00,
2013-08-03 13:38:00,76.8,67.5,29.80,East,90,0.0,2.5,73,0.00,,,0.00,WUHU21623XXSP,2013-08-03 17:38:00,
2013-08-03 13:43:00,77.4,68.0,29.80,ESE,112,0.0,1.8,73,0.00,,,0.00,WUHU21623XXSP,2013-08-03 17:43:00,
2013-08-03 13:48:00,77.5,67.4,29.80,ESE,112,0.0,1.6,71,0.00,,,0.00,WUHU21623XXSP,2013-08-03 17:48:00,
2013-08-03 13:53:00,77.2,67.5,29.80,NNW,337,1.8,1.8,72,0.00,,,0.00,WUHU21623XXSP,2013-08-03 17:53:00,
2013-08-03 13:58:00,77.4,67.3,29.79,ESE,112,0.0,1.8,71,0.00,,,0.00,WUHU21623XXSP,2013-08-03 17:58:00,
2013-08-03 14:03:00,77.5,67.0,29.79,SSE,157,0.0,2.0,70,0.00,,,0.00,WUHU21623XXSP,2013-08-03 18:03:00,
2013-08-03 14:07:00,77.5,67.0,29.79,NE,45,0.0,2.0,70,0.00,,,0.00,WUHU21623XXSP,2013-08-03 18:07:00,
2013-08-03 14:13:00,77.4,67.3,29.80,ESE,112,0.0,0.0,71,0.00,,,0.00,WUHU21623XXSP,2013-08-03 18:13:00,
2013-08-03 14:18:00,77.2,67.1,29.80,ESE,112,0.0,0.0,71,0.00,,,0.00,WUHU21623XXSP,2013-08-03 18:18:00,
2013-08-03 14:23:00,76.8,66.8,29.80,NE,45,1.6,1.6,71,0.00,,,0.00,WUHU21623XXSP,2013-08-03 18:23:00,
2013-08-03 14:27:00,77.0,66.6,29.80,West,270,2.2,2.2,70,0.00,,,0.00,WUHU21623XXSP,2013-08-03 18:27:00,
2013-08-03 14:33:00,77.4,66.9,29.80,NNW,337,0.0,2.2,70,0.00,,,0.00,WUHU21623XXSP,2013-08-03 18:33:00,
2013-08-03 14:38:00,77.5,67.0,29.80,SE,135,0.0,0.0,70,0.00,,,0.00,WUHU21623XXSP,2013-08-03 18:38:00,
2013-08-03 14:43:00,77.7,67.6,29.79,WSW,247,0.0,0.0,71,0.00,,,0.00,WUHU21623XXSP,2013-08-03 18:43:00,
2013-08-03 14:48:00,77.7,67.2,29.79,ENE,67,3.8,3.8,70,0.00,,,0.00,WUHU21623XXSP,2013-08-03 18:48:00,
2013-08-03 14:53:00,77.7,66.8,29.79,NNE,22,2.9,3.8,69,0.00,,,0.00,WUHU21623XXSP,2013-08-03 18:53:00,
2013-08-03 14:58:00,77.5,66.6,29.79,SW,225,6.9,6.9,69,0.00,,,0.00,WUHU21623XXSP,2013-08-03 18:58:00,
2013-08-03 15:03:00,77.4,66.4,29.79,SSE,157,1.6,6.9,69,0.00,,,0.00,WUHU21623XXSP,2013-08-03 19:03:00,
2013-08-03 15:08:00,77.4,66.4,29.79,NE,45,0.0,1.6,69,0.00,,,0.00,WUHU21623XXSP,2013-08-03 19:08:00,
2013-08-03 15:12:00,77.5,67.0,29.79,West,270,0.0,1.6,70,0.00,,,0.00,WUHU21623XXSP,2013-08-03 19:12:00,
2013-08-03 15:18:00,77.5,67.0,29.79,WNW,292,0.0,0.0,70,0.00,,,0.00,WUHU21623XXSP,2013-08-03 19:18:00,
2013-08-03 15:23:00,77.2,66.3,29.79,ENE,67,0.0,0.0,69,0.00,,,0.00,WUHU21623XXSP,2013-08-03 19:23:00,
2013-08-03 15:28:00,77.2,66.7,29.78,SW,225,0.0,0.0,70,0.00,,,0.00,WUHU21623XXSP,2013-08-03 19:28:00,
2013-08-03 15:33:00,77.2,66.3,29.78,WSW,247,2.0,2.0,69,0.00,,,0.00,WUHU21623XXSP,2013-08-03 19:33:00,
2013-08-03 15:38:00,77.2,66.3,29.78,NE,45,0.0,2.0,69,0.00,,,0.00,WUHU21623XXSP,2013-08-03 19:38:00,
2013-08-03 15:43:00,77.5,66.6,29.78,ESE,112,0.0,1.6,69,0.00,,,0.00,WUHU21623XXSP,2013-08-03 19:43:00,
2013-08-03 15:47:00,77.5,66.6,29.78,SSW,202,0.0,0.0,69,0.00,,,0.00,WUHU21623XXSP,2013-08-03 19:47:00,
2013-08-03 15:53:00,77.7,67.2,29.78,NE,45,0.0,1.8,70,0.00,,,0.00,WUHU21623XXSP,2013-08-03 19:53:00,
2013-08-03 15:58:00,77.7,67.2,29.78,NNE,22,1.3,1.8,70,0.00,,,0.00,WUHU21623XXSP,2013-08-03 19:58:00,
2013-08-03 16:03:00,77.4,66.4,29.78,NE,45,0.0,1.3,69,0.00,,,0.00,WUHU21623XXSP,2013-08-03 20:03:00,
2013-08-03 16:08:00,76.8,66.4,29.77,NNW,337,0.0,2.0,70,0.00,,,0.00,WUHU21623XXSP,2013-08-03 20:08:00,
2013-08-03 16:13:00,76.8,67.1,29.77,SSW,202,0.0,2.0,72,0.00,,,0.00,WUHU21623XXSP,2013-08-03 20:13:00,
2013-08-03 16:18:00,77.0,67.3,29.77,WNW,292,0.0,0.0,72,0.00,,,0.00,WUHU21623XXSP,2013-08-03 20:18:00,
2013-08-03 16:23:00,77.4,67.6,29.77,West,270,0.0,0.0,72,0.00,,,0.00,WUHU21623XXSP,2013-08-03 20:23:00,
2013-08-03 16:28:00,77.4,67.3,29.77,SSW,202,0.0,0.0,71,0.00,,,0.00,WUHU21623XXSP,2013-08-03 20:28:00,
2013-08-03 16:33:00,77.2,67.1,29.76,East,90,0.0,0.0,71,0.00,,,0.00,WUHU21623XXSP,2013-08-03 20:33:00,
2013-08-03 16:38:00,77.2,67.5,29.76,SSE,157,0.0,0.0,72,0.00,,,0.00,WUHU21623XXSP,2013-08-03 20:38:00,
2013-08-03 16:43:00,77.2,67.5,29.76,SSE,157,0.0,0.0,72,0.00,,,0.00,WUHU21623XXSP,2013-08-03 20:43:00,
2013-08-03 16:48:00,77.2,67.1,29.76,NW,315,0.0,2.5,71,0.00,,,0.00,WUHU21623XXSP,2013-08-03 20:48:00,
2013-08-03 16:53:00,77.2,67.1,29.76,NW,315,3.1,3.1,71,0.00,,,0.00,WUHU21623XXSP,2013-08-03 20:53:00,
2013-08-03 16:57:00,77.2,67.1,29.77,NE,45,0.0,3.1,71,0.00,,,0.00,WUHU21623XXSP,2013-08-03 20:57:00,
2013-08-03 17:03:00,77.2,67.1,29.77,NNE,22,1.3,1.3,71,0.00,,,0.00,WUHU21623XXSP,2013-08-03 21:03:00,
2013-08-03 17:08:00,77.0,66.9,29.77,SE,135,0.9,1.3,71,0.00,,,0.00,WUHU21623XXSP,2013-08-03 21:08:00,
2013-08-03 17:12:00,76.8,66.6,29.76,North,0,0.0,0.9,70,0.00,,,0.00,WUHU21623XXSP,2013-08-03 21:12:00,
2013-08-03 17:17:00,77.0,66.6,29.76,South,180,0.0,0.0,70,0.00,,,0.00,WUHU21623XXSP,2013-08-03 21:17:00,
2013-08-03 17:23:00,76.8,65.9,29.76,SSW,202,0.0,4.7,69,0.00,,,0.00,WUHU21623XXSP,2013-08-03 21:23:00,
2013-08-03 17:28:00,76.8,66.4,29.76,SSE,157,0.0,4.7,70,0.00,,,0.00,WUHU21623XXSP,2013-08-03 21:28:00,
2013-08-03 17:33:00,76.8,66.4,29.76,SE,135,0.0,2.0,70,0.00,,,0.00,WUHU21623XXSP,2013-08-03 21:33:00,
2013-08-03 17:37:00,76.6,66.2,29.76,NNW,337,0.0,3.1,70,0.00,,,0.00,WUHU21623XXSP,2013-08-03 21:37:00,
2013-08-03 17:43:00,76.6,65.8,29.75,ENE,67,0.0,3.1,69,0.00,,,0.00,WUHU21623XXSP,2013-08-03 21:43:00,
2013-08-03 17:48:00,76.6,65.8,29.75,ESE,112,0.0,0.0,69,0.00,,,0.00,WUHU21623XXSP,2013-08-03 21:48:00,
2013-08-03 17:53:00,76.5,65.6,29.76,WNW,292,0.0,0.0,69,0.00,,,0.00,WUHU21623XXSP,2013-08-03 21:53:00,
2013-08-03 17:58:00,76.3,65.8,29.76,SSE,157,0.0,2.7,70,0.00,,,0.00,WUHU21623XXSP,2013-08-03 21:58:00,
2013-08-03 18:03:00,76.3,65.8,29.76,ESE,112,0.0,2.7,70,0.00,,,0.00,WUHU21623XXSP,2013-08-03 22:03:00,
2013-08-03 18:08:00,76.1,66.0,29.76,ENE,67,0.0,7.8,71,0.00,,,0.00,WUHU21623XXSP,2013-08-03 22:08:00,
2013-08-03 18:13:00,75.9,66.3,29.76,North,0,1.3,7.8,72,0.00,,,0.00,WUHU21623XXSP,2013-08-03 22:13:00,
2013-08-03 18:18:00,75.9,65.9,29.76,ESE,112,0.0,1.3,72,0.00,,,0.00,WUHU21623XXSP,2013-08-03 22:18:00,
2013-08-03 18:23:00,75.4,65.7,29.76,North,0,0.0,0.0,72,0.00,,,0.00,WUHU21623XXSP,2013-08-03 22:23:00,
2013-08-03 18:28:00,75.4,65.7,29.76,SE,135,0.0,0.0,72,0.00,,,0.00,WUHU21623XXSP,2013-08-03 22:28:00,
2013-08-03 18:33:00,75.0,65.8,29.76,SE,135,0.0,0.0,73,0.00,,,0.00,WUHU21623XXSP,2013-08-03 22:33:00,
2013-08-03 18:38:00,74.8,65.6,29.76,South,180,0.0,0.0,73,0.00,,,0.00,WUHU21623XXSP,2013-08-03 22:38:00,
2013-08-03 18:43:00,74.7,65.6,29.76,SSE,157,0.0,0.0,73,0.00,,,0.00,WUHU21623XXSP,2013-08-03 22:43:00,
2013-08-03 18:48:00,74.3,65.1,29.76,South,180,0.0,0.0,73,0.00,,,0.00,WUHU21623XXSP,2013-08-03 22:48:00,
2013-08-03 18:53:00,74.1,65.3,29.76,ESE,112,0.0,0.0,74,0.00,,,0.00,WUHU21623XXSP,2013-08-03 22:53:00,
2013-08-03 18:58:00,74.1,65.3,29.76,NE,45,0.0,0.0,74,0.00,,,0.00,WUHU21623XXSP,2013-08-03 22:58:00,
2013-08-03 19:03:00,73.8,65.0,29.76,ENE,67,0.0,1.6,74,0.00,,,0.00,WUHU21623XXSP,2013-08-03 23:03:00,
2013-08-03 19:08:00,73.6,64.8,29.76,ESE,112,0.0,1.6,74,0.00,,,0.00,WUHU21623XXSP,2013-08-03 23:08:00,
2013-08-03 19:13:00,73.2,64.8,29.76,ESE,112,0.0,0.0,75,0.00,,,0.00,WUHU21623XXSP,2013-08-03 23:13:00,
2013-08-03 19:18:00,73.0,64.7,29.77,SE,135,0.0,0.0,75,0.00,,,0.00,WUHU21623XXSP,2013-08-03 23:18:00,
2013-08-03 19:23:00,72.9,64.5,29.76,East,90,0.0,0.0,75,0.00,,,0.00,WUHU21623XXSP,2013-08-03 23:23:00,
2013-08-03 19:28:00,72.7,64.7,29.76,SE,135,0.0,0.0,76,0.00,,,0.00,WUHU21623XXSP,2013-08-03 23:28:00,
2013-08-03 19:33:00,72.3,64.3,29.77,SSE,157,0.0,0.0,76,0.00,,,0.00,WUHU21623XXSP,2013-08-03 23:33:00,
2013-08-03 19:38:00,72.1,64.1,29.77,ESE,112,0.0,0.0,76,0.00,,,0.00,WUHU21623XXSP,2013-08-03 23:38:00,
2013-08-03 19:43:00,71.8,64.2,29.77,SE,135,0.0,0.0,77,0.00,,,0.00,WUHU21623XXSP,2013-08-03 23:43:00,
2013-08-03 19:48:00,71.4,63.8,29.77,North,0,0.0,0.0,77,0.00,,,0.00,WUHU21623XXSP,2013-08-03 23:48:00,
2013-08-03 19:53:00,71.4,63.8,29.77,NNW,337,0.0,0.0,77,0.00,,,0.00,WUHU21623XXSP,2013-08-03 23:53:00,
2013-08-03 19:58:00,71.2,64.0,29.77,North,0,0.0,0.0,78,0.00,,,0.00,WUHU21623XXSP,2013-08-03 23:58:00,
2013-08-03 20:03:00,70.9,63.6,29.78,ENE,67,0.0,0.0,78,0.00,,,0.00,WUHU21623XXSP,2013-08-04 00:03:00,
2013-08-03 20:08:00,70.9,63.6,29.78,ESE,112,0.0,0.0,78,0.00,,,0.00,WUHU21623XXSP,2013-08-04 00:08:00,
2013-08-03 20:13:00,70.9,63.6,29.78,SE,135,0.0,0.0,78,0.00,,,0.00,WUHU21623XXSP,2013-08-04 00:13:00,
2013-08-03 20:18:00,70.5,63.7,29.79,SSE,157,0.0,0.0,79,0.00,,,0.00,WUHU21623XXSP,2013-08-04 00:18:00,
2013-08-03 20:23:00,70.3,63.5,29.78,SE,135,0.0,0.0,79,0.00,,,0.00,WUHU21623XXSP,2013-08-04 00:23:00,
2013-08-03 20:28:00,70.3,63.9,29.79,SE,135,0.0,0.0,80,0.00,,,0.00,WUHU21623XXSP,2013-08-04 00:28:00,
2013-08-03 20:33:00,70.2,63.7,29.79,SE,135,0.0,0.0,80,0.00,,,0.00,WUHU21623XXSP,2013-08-04 00:33:00,
2013-08-03 20:38:00,70.2,64.0,29.79,SE,135,0.0,0.0,81,0.00,,,0.00,WUHU21623XXSP,2013-08-04 00:38:00,
2013-08-03 20:43:00,70.0,63.8,29.79,East,90,0.0,0.0,81,0.00,,,0.00,WUHU21623XXSP,2013-08-04 00:43:00,
2013-08-03 20:48:00,70.0,63.8,29.80,East,90,0.0,0.0,81,0.00,,,0.00,WUHU21623XXSP,2013-08-04 00:48:00,
2013-08-03 20:53:00,70.0,63.8,29.80,ESE,112,0.0,0.0,81,0.00,,,0.00,WUHU21623XXSP,2013-08-04 00:53:00,
2013-08-03 20:58:00,70.0,63.8,29.80,ESE,112,0.0,0.0,81,0.00,,,0.00,WUHU21623XXSP,2013-08-04 00:58:00,
2013-08-03 21:03:00,70.0,64.2,29.80,East,90,0.0,0.0,82,0.00,,,0.00,WUHU21623XXSP,2013-08-04 01:03:00,
2013-08-03 21:08:00,70.0,64.2,29.80,ESE,112,0.0,0.0,82,0.00,,,0.00,WUHU21623XXSP,2013-08-04 01:08:00,
2013-08-03 21:13:00,70.0,64.2,29.80,East,90,0.0,0.0,82,0.00,,,0.00,WUHU21623XXSP,2013-08-04 01:13:00,
2013-08-03 21:18:00,70.0,64.2,29.79,NW,315,0.0,0.0,82,0.00,,,0.00,WUHU21623XXSP,2013-08-04 01:18:00,
2013-08-03 21:23:00,70.0,64.2,29.79,ESE,112,0.0,0.0,82,0.00,,,0.00,WUHU21623XXSP,2013-08-04 01:23:00,
2013-08-03 21:28:00,70.0,64.2,29.80,ESE,112,0.0,0.0,82,0.00,,,0.00,WUHU21623XXSP,2013-08-04 01:28:00,
2013-08-03 21:33:00,70.0,64.2,29.80,East,90,0.0,0.0,82,0.00,,,0.00,WUHU21623XXSP,2013-08-04 01:33:00,
2013-08-03 21:38:00,70.0,64.2,29.79,ESE,112,0.0,0.0,82,0.00,,,0.00,WUHU21623XXSP,2013-08-04 01:38:00,
2013-08-03 21:43:00,70.0,64.2,29.80,SSE,157,0.0,0.0,82,0.00,,,0.00,WUHU21623XXSP,2013-08-04 01:43:00,
2013-08-03 21:48:00,69.8,64.0,29.80,ENE,67,0.0,0.0,82,0.00,,,0.00,WUHU21623XXSP,2013-08-04 01:48:00,
2013-08-03 21:53:00,69.8,64.2,29.80,SE,135,0.0,0.0,82,0.00,,,0.00,WUHU21623XXSP,2013-08-04 01:53:00,
2013-08-03 21:58:00,69.8,64.0,29.80,ESE,112,0.0,0.0,82,0.00,,,0.00,WUHU21623XXSP,2013-08-04 01:58:00,
2013-08-03 22:03:00,69.8,64.0,29.80,NNE,22,0.0,0.0,82,0.00,,,0.00,WUHU21623XXSP,2013-08-04 02:03:00,
2013-08-03 22:08:00,69.8,64.0,29.80,SE,135,0.0,0.0,82,0.00,,,0.00,WUHU21623XXSP,2013-08-04 02:08:00,
2013-08-03 22:13:00,69.8,64.0,29.80,SE,135,0.0,0.0,82,0.00,,,0.00,WUHU21623XXSP,2013-08-04 02:13:00,
2013-08-03 22:18:00,69.8,64.0,29.80,ESE,112,0.0,0.0,82,0.00,,,0.00,WUHU21623XXSP,2013-08-04 02:18:00,
2013-08-03 22:23:00,69.8,64.0,29.80,ESE,112,0.0,0.0,82,0.00,,,0.00,WUHU21623XXSP,2013-08-04 02:23:00,
2013-08-03 22:28:00,69.8,64.0,29.80,South,180,0.0,0.0,82,0.00,,,0.00,WUHU21623XXSP,2013-08-04 02:28:00,
2013-08-03 22:33:00,69.8,64.0,29.80,East,90,0.0,0.0,82,0.00,,,0.00,WUHU21623XXSP,2013-08-04 02:33:00,
2013-08-03 22:38:00,69.6,63.8,29.80,SE,135,0.0,0.0,82,0.00,,,0.00,WUHU21623XXSP,2013-08-04 02:38:00,
2013-08-03 22:43:00,69.6,63.8,29.81,NE,45,0.0,0.0,82,0.00,,,0.00,WUHU21623XXSP,2013-08-04 02:43:00,
2013-08-03 22:48:00,69.6,63.8,29.80,ENE,67,0.0,0.0,82,0.00,,,0.00,WUHU21623XXSP,2013-08-04 02:48:00,
2013-08-03 22:53:00,69.6,63.8,29.81,South,180,0.0,0.0,82,0.00,,,0.00,WUHU21623XXSP,2013-08-04 02:53:00,
2013-08-03 22:58:00,69.6,63.8,29.80,South,180,0.0,0.0,82,0.00,,,0.00,WUHU21623XXSP,2013-08-04 02:58:00,
2013-08-03 23:03:00,69.4,63.8,29.81,South,180,0.0,0.0,82,0.00,,,0.00,WUHU21623XXSP,2013-08-04 03:03:00,
2013-08-03 23:08:00,69.4,63.7,29.81,ENE,67,0.0,0.0,82,0.00,,,0.00,WUHU21623XXSP,2013-08-04 03:08:00,
2013-08-03 23:13:00,69.4,63.7,29.80,SSE,157,0.0,0.0,82,0.00,,,0.00,WUHU21623XXSP,2013-08-04 03:13:00,
2013-08-03 23:18:00,69.3,63.5,29.80,SSE,157,0.0,0.0,82,0.00,,,0.00,WUHU21623XXSP,2013-08-04 03:18:00,
2013-08-03 23:23:00,69.1,63.3,29.80,SE,135,0.0,0.0,82,0.00,,,0.00,WUHU21623XXSP,2013-08-04 03:23:00,
2013-08-03 23:28:00,69.1,63.3,29.81,SSE,157,0.0,0.0,82,0.00,,,0.00,WUHU21623XXSP,2013-08-04 03:28:00,
2013-08-03 23:33:00,68.9,63.5,29.81,East,90,1.3,1.3,83,0.00,,,0.00,WUHU21623XXSP,2013-08-04 03:33:00,
2013-08-03 23:38:00,68.9,63.5,29.80,East,90,0.0,1.3,83,0.00,,,0.00,WUHU21623XXSP,2013-08-04 03:38:00,
2013-08-03 23:43:00,68.9,63.5,29.80,East,90,0.0,0.0,83,0.00,,,0.00,WUHU21623XXSP,2013-08-04 03:43:00,
2013-08-03 23:48:00,68.7,63.3,29.80,East,90,0.0,0.0,83,0.00,,,0.00,WUHU21623XXSP,2013-08-04 03:48:00,
2013-08-03 23:53:00,68.7,63.3,29.80,East,90,0.0,0.0,83,0.00,,,0.00,WUHU21623XXSP,2013-08-04 03:53:00,
2013-08-03 23:58:00,68.7,63.0,29.79,SSE,157,0.0,0.0,82,0.00,,,0.00,WUHU21623XXSP,2013-08-04 03:58:00,